McNutt, Louisiana
Current Conditions -  °F | °C
As of 5:53 AM on Monday 22 Dec 2014 (Local Time) from KAEX Reporting Station
Moderate Fog Moderate Fog  
Wind Chill: 51°   Ceiling: 200
Heat Index: 51°   Visibility: 0.5mi
Dew Point: 51°   Wind: 6mph
Humidity: 100%   Direction: 150°SSE
Pressure: 29.8"   Gusts: NA
Location:  31.3168°N, 92.7338°W
Report Text: KAEX 221153Z 15005KT 1/2SM FG VV002 11/11 A2980 RMK AO2 SLP096 T01060106 10106 20094 56018
Loading
Personal Weather Stations






























Interactive Weather Map New forecast layout! Learn more

10-Day Weather Forecast

Advertisements
Track Severe Weather on mobile